Time;durP1;ratioP1;P1;durP2;ratioP2;P2;SDS_P1;SDS_P2;PMS_P1;PMS_P2;Temp;Humidity;BMP_temperature;BMP_pressure;BME280_temperature;BME280_humidity;BME280_pressure;Samples;Min_cycle;Max_cycle;Signal;HPM_P1;HPM_P2
2022/03/29 00:01:01;;;;;;;19.67;15.05;;;9.70;99.90;;;;;;5020717;28;20130;-62
2022/03/29 00:03:28;;;;;;;19.40;14.15;;;9.80;99.90;;;;;;5026686;28;20143;-62
2022/03/29 00:05:55;;;;;;;23.85;16.38;;;9.80;99.90;;;;;;5027064;28;20049;-62
2022/03/29 00:08:22;;;;;;;25.95;17.85;;;9.70;99.90;;;;;;5029487;28;20085;-62
2022/03/29 00:10:49;;;;;;;24.98;18.92;;;9.70;99.90;;;;;;5030684;28;20049;-62
2022/03/29 00:13:15;;;;;;;25.67;17.15;;;9.60;99.90;;;;;;5028542;28;20146;-62
2022/03/29 00:15:42;;;;;;;22.60;16.50;;;9.60;99.90;;;;;;5030143;28;20077;-62
2022/03/29 00:18:09;;;;;;;21.98;15.88;;;9.60;99.90;;;;;;5030497;28;20124;-62
2022/03/29 00:20:36;;;;;;;21.98;15.60;;;9.60;99.90;;;;;;5029634;28;20072;-62
2022/03/29 00:23:03;;;;;;;22.60;16.45;;;9.60;99.90;;;;;;5029630;28;20046;-63
2022/03/29 00:25:30;;;;;;;24.45;18.05;;;9.60;99.90;;;;;;5030507;28;20136;-62
2022/03/29 00:27:57;;;;;;;23.25;16.77;;;9.60;99.90;;;;;;5029862;28;20091;-62
2022/03/29 00:30:24;;;;;;;22.52;15.82;;;9.60;99.90;;;;;;5030137;28;20092;-63
2022/03/29 00:32:51;;;;;;;23.08;16.10;;;9.50;99.90;;;;;;5029758;28;20085;-62
2022/03/29 00:35:17;;;;;;;23.80;16.65;;;9.50;99.90;;;;;;5029653;28;20050;-62
2022/03/29 00:37:44;;;;;;;21.67;15.43;;;9.60;99.90;;;;;;5030495;28;20132;-62
2022/03/29 00:40:12;;;;;;;24.38;16.00;;;9.50;99.90;;;;;;5027863;28;20467;-62
2022/03/29 00:42:39;;;;;;;22.77;15.60;;;9.60;99.90;;;;;;5029811;28;20115;-62
2022/03/29 00:45:06;;;;;;;20.80;15.48;;;9.50;99.90;;;;;;5029927;28;20141;-63
2022/03/29 00:47:33;;;;;;;19.90;14.77;;;9.50;99.90;;;;;;5030167;28;20135;-62
2022/03/29 00:50:00;;;;;;;21.55;14.18;;;9.50;99.90;;;;;;5029620;28;20076;-62
2022/03/29 00:52:27;;;;;;;20.58;15.07;;;9.50;99.90;;;;;;5029803;28;20115;-62
2022/03/29 00:54:54;;;;;;;22.08;15.05;;;9.50;99.90;;;;;;5030039;28;20053;-62
2022/03/29 00:57:21;;;;;;;24.20;16.58;;;9.50;99.90;;;;;;5030594;28;20153;-62
2022/03/29 00:59:47;;;;;;;21.90;16.23;;;9.50;99.90;;;;;;5028759;28;20127;-62
2022/03/29 01:02:14;;;;;;;21.33;15.52;;;9.50;99.90;;;;;;5025923;28;20127;-62
2022/03/29 01:04:41;;;;;;;24.00;15.77;;;9.50;99.90;;;;;;5025969;28;20099;-62
2022/03/29 01:07:08;;;;;;;22.40;15.38;;;9.50;99.90;;;;;;5027579;28;20559;-62
2022/03/29 01:09:35;;;;;;;22.48;15.80;;;9.50;99.90;;;;;;5029868;28;20100;-62
2022/03/29 01:12:01;;;;;;;24.60;16.60;;;9.50;99.90;;;;;;5029039;28;20140;-62
2022/03/29 01:14:28;;;;;;;23.13;16.23;;;9.40;99.90;;;;;;5026669;28;20084;-62
2022/03/29 01:19:41;;;;;;;20.27;14.75;;;9.40;99.90;;;;;;5026354;28;20069;-62
2022/03/29 01:22:09;;;;;;;23.20;15.40;;;9.40;99.90;;;;;;5026623;28;20068;-62
2022/03/29 01:24:37;;;;;;;23.60;16.48;;;9.40;99.90;;;;;;5020229;28;20077;-62
2022/03/29 01:27:04;;;;;;;20.35;14.25;;;9.50;99.90;;;;;;5024935;28;20077;-62
2022/03/29 01:29:32;;;;;;;21.10;14.63;;;9.50;99.90;;;;;;5025365;28;20064;-64
2022/03/29 01:31:58;;;;;;;23.00;15.93;;;9.50;99.90;;;;;;5020449;28;20152;-61
2022/03/29 01:34:25;;;;;;;21.30;15.88;;;9.60;99.90;;;;;;5026346;28;20087;-62
2022/03/29 01:36:52;;;;;;;22.83;15.02;;;9.60;99.90;;;;;;5026923;28;20519;-62
2022/03/29 01:39:19;;;;;;;23.35;16.65;;;9.60;99.90;;;;;;5027263;28;20152;-62
2022/03/29 01:41:46;;;;;;;22.73;15.52;;;9.60;99.90;;;;;;5027580;28;20137;-62
2022/03/29 01:44:13;;;;;;;23.38;16.10;;;9.60;99.90;;;;;;5025253;28;20041;-62
2022/03/29 01:46:40;;;;;;;21.73;14.82;;;9.60;99.90;;;;;;5026498;28;20181;-62
2022/03/29 01:49:07;;;;;;;23.38;15.15;;;9.60;99.90;;;;;;5027050;28;20599;-63
2022/03/29 01:51:34;;;;;;;22.60;15.00;;;9.60;99.90;;;;;;5026145;28;20049;-62
2022/03/29 01:54:02;;;;;;;23.80;16.13;;;9.60;99.90;;;;;;5025921;28;20159;-62
2022/03/29 01:56:31;;;;;;;21.77;16.45;;;9.60;99.90;;;;;;5026615;28;20129;-62
2022/03/29 01:58:57;;;;;;;22.45;15.95;;;9.60;99.90;;;;;;5024696;28;20069;-62
2022/03/29 02:01:24;;;;;;;21.90;15.75;;;9.60;99.90;;;;;;5008087;28;20128;-62
2022/03/29 02:03:51;;;;;;;21.08;15.70;;;9.60;99.90;;;;;;5026063;28;20053;-62
2022/03/29 02:06:18;;;;;;;22.98;15.27;;;9.60;99.90;;;;;;5025749;28;20108;-62
2022/03/29 02:08:45;;;;;;;22.20;16.00;;;9.60;99.90;;;;;;5025275;28;20084;-63
2022/03/29 02:11:12;;;;;;;22.45;16.50;;;9.60;99.90;;;;;;5026649;28;20083;-62
2022/03/29 02:13:44;;;;;;;22.65;16.90;;;9.60;99.90;;;;;;5025531;28;20053;-61
2022/03/29 02:16:11;;;;;;;24.35;16.42;;;9.50;99.90;;;;;;5026040;28;20136;-62
2022/03/29 02:18:38;;;;;;;22.55;16.05;;;9.60;99.90;;;;;;5026489;28;20603;-63
2022/03/29 02:21:04;;;;;;;20.65;15.95;;;9.50;99.90;;;;;;5025419;28;20088;-62
2022/03/29 02:23:31;;;;;;;23.42;16.98;;;9.60;99.90;;;;;;5025916;28;20128;-63
2022/03/29 02:25:58;;;;;;;22.95;17.73;;;9.60;99.90;;;;;;5023645;28;20050;-62
2022/03/29 02:28:25;;;;;;;25.15;17.52;;;9.50;99.90;;;;;;5026122;28;20089;-63
2022/03/29 02:30:51;;;;;;;27.27;18.63;;;9.50;99.90;;;;;;5025816;28;20138;-62
2022/03/29 02:33:18;;;;;;;23.50;17.63;;;9.50;99.90;;;;;;5024772;28;20097;-63
2022/03/29 02:35:45;;;;;;;24.45;17.48;;;9.50;99.90;;;;;;5025033;28;20088;-61
2022/03/29 02:38:13;;;;;;;23.08;17.65;;;9.50;99.90;;;;;;5025253;28;20136;-62
2022/03/29 02:40:40;;;;;;;22.00;16.48;;;9.50;99.90;;;;;;5024353;28;20129;-62
2022/03/29 02:43:07;;;;;;;21.38;15.55;;;9.50;99.90;;;;;;5025495;28;20175;-62
2022/03/29 02:45:34;;;;;;;24.13;16.00;;;9.50;99.90;;;;;;5025902;28;20470;-62
2022/03/29 02:48:01;;;;;;;24.50;15.98;;;9.60;99.90;;;;;;5025458;28;20099;-62
2022/03/29 02:50:27;;;;;;;21.05;14.98;;;9.50;99.90;;;;;;5025356;28;20561;-62
2022/03/29 02:52:56;;;;;;;20.27;14.35;;;9.50;99.90;;;;;;5024328;28;20053;-62
2022/03/29 02:55:24;;;;;;;20.48;15.45;;;9.60;99.90;;;;;;5025296;28;20038;-63
2022/03/29 02:57:51;;;;;;;20.92;15.45;;;9.50;99.90;;;;;;5025351;28;20128;-62
2022/03/29 03:00:18;;;;;;;21.60;16.40;;;9.60;99.90;;;;;;5025349;28;20097;-62
2022/03/29 03:02:46;;;;;;;20.75;16.50;;;9.60;99.90;;;;;;5040263;28;20510;-62
2022/03/29 03:05:13;;;;;;;24.13;17.13;;;9.60;99.90;;;;;;5024719;28;20412;-62
2022/03/29 03:07:41;;;;;;;22.98;17.85;;;9.50;99.90;;;;;;5023065;28;20451;-63
2022/03/29 03:10:08;;;;;;;23.52;15.75;;;9.50;99.90;;;;;;5023402;28;20100;-63
2022/03/29 03:12:39;;;;;;;23.67;17.65;;;9.60;99.90;;;;;;5025407;28;20176;-62
2022/03/29 03:15:06;;;;;;;23.05;16.67;;;9.50;99.90;;;;;;5024785;28;20159;-63
2022/03/29 03:17:33;;;;;;;20.75;16.77;;;9.50;99.90;;;;;;5023892;28;20140;-63
2022/03/29 03:20:00;;;;;;;21.42;14.93;;;9.50;99.90;;;;;;5024747;28;20045;-62
2022/03/29 03:22:27;;;;;;;19.63;15.35;;;9.50;99.90;;;;;;5025028;28;20136;-62
2022/03/29 03:24:55;;;;;;;22.05;17.52;;;9.50;99.90;;;;;;5023877;28;20503;-63
2022/03/29 03:27:21;;;;;;;22.23;14.70;;;9.50;99.90;;;;;;5025226;28;20081;-62
2022/03/29 03:29:48;;;;;;;20.17;15.20;;;9.60;99.90;;;;;;5025172;28;20076;-62
2022/03/29 03:32:15;;;;;;;21.38;16.83;;;9.50;99.90;;;;;;5024029;28;20084;-62
2022/03/29 03:34:42;;;;;;;24.00;16.40;;;9.50;99.90;;;;;;5024429;28;20111;-63
2022/03/29 03:37:09;;;;;;;21.77;16.30;;;9.50;99.90;;;;;;5024785;28;20141;-62
2022/03/29 03:39:37;;;;;;;23.05;17.15;;;9.40;99.90;;;;;;5024247;28;20073;-62
2022/03/29 03:42:04;;;;;;;19.50;15.40;;;9.40;99.90;;;;;;5025016;28;20049;-62
2022/03/29 03:44:31;;;;;;;17.55;14.50;;;9.30;99.90;;;;;;5025131;28;20731;-63
2022/03/29 03:47:00;;;;;;;18.60;15.27;;;9.40;99.90;;;;;;5024292;28;20122;-62
2022/03/29 03:49:26;;;;;;;18.63;15.57;;;9.30;99.90;;;;;;5024248;28;21938;-62
2022/03/29 03:51:53;;;;;;;17.90;15.30;;;9.30;99.90;;;;;;5025247;28;20145;-62
2022/03/29 03:54:21;;;;;;;17.67;14.90;;;9.30;99.90;;;;;;5024147;28;20407;-62
2022/03/29 03:56:47;;;;;;;16.05;13.52;;;9.30;99.90;;;;;;5023676;28;20084;-62
2022/03/29 03:59:14;;;;;;;17.65;13.27;;;9.30;99.90;;;;;;5024382;28;20073;-62
2022/03/29 04:01:41;;;;;;;19.75;14.35;;;9.40;99.90;;;;;;5024611;28;20189;-62
2022/03/29 04:04:08;;;;;;;15.63;13.63;;;9.30;99.90;;;;;;5024240;28;20184;-62
2022/03/29 04:06:35;;;;;;;15.52;12.65;;;9.40;99.90;;;;;;5023933;28;20240;-63
2022/03/29 04:09:01;;;;;;;17.45;13.27;;;9.40;99.90;;;;;;5024387;28;20132;-62
2022/03/29 04:11:28;;;;;;;17.52;14.75;;;9.40;99.90;;;;;;5024153;28;20671;-62
2022/03/29 04:13:56;;;;;;;20.15;14.55;;;9.40;99.90;;;;;;5024625;28;20081;-62
2022/03/29 04:16:22;;;;;;;21.10;15.68;;;9.30;99.90;;;;;;5023600;28;20468;-62
2022/03/29 04:18:49;;;;;;;20.52;14.95;;;9.30;99.90;;;;;;5024773;28;20136;-62
2022/03/29 04:21:16;;;;;;;17.83;15.77;;;9.20;99.90;;;;;;5024310;28;20076;-62
2022/03/29 04:23:43;;;;;;;17.40;13.85;;;9.30;99.90;;;;;;5023917;28;20132;-63
2022/03/29 04:26:10;;;;;;;22.48;14.82;;;9.30;99.90;;;;;;5023835;28;20144;-62
2022/03/29 04:28:37;;;;;;;18.45;14.82;;;9.30;99.90;;;;;;5024850;28;20065;-62
2022/03/29 04:31:03;;;;;;;19.35;14.82;;;9.30;99.90;;;;;;5025430;28;20132;-62
2022/03/29 04:33:30;;;;;;;17.98;13.93;;;9.30;99.90;;;;;;5027166;28;20145;-62
2022/03/29 04:35:57;;;;;;;20.10;14.65;;;9.30;99.90;;;;;;5026411;28;20160;-62
2022/03/29 04:38:25;;;;;;;20.75;14.75;;;9.40;99.90;;;;;;5026441;28;20496;-62
2022/03/29 04:40:52;;;;;;;19.65;14.57;;;9.40;99.90;;;;;;5024200;28;20073;-62
2022/03/29 04:43:19;;;;;;;18.75;14.07;;;9.30;99.90;;;;;;5025563;28;20091;-62
2022/03/29 04:45:45;;;;;;;19.25;14.45;;;9.30;99.90;;;;;;5025552;28;20163;-62
2022/03/29 04:48:13;;;;;;;19.77;15.00;;;9.30;99.90;;;;;;5023108;28;20071;-62
2022/03/29 04:50:40;;;;;;;18.50;14.90;;;9.30;99.90;;;;;;5025716;28;20058;-62
2022/03/29 04:53:07;;;;;;;18.13;13.80;;;9.40;99.90;;;;;;5026319;28;20512;-62
2022/03/29 04:55:34;;;;;;;18.23;14.40;;;9.40;99.90;;;;;;5024421;28;20136;-62
2022/03/29 04:58:01;;;;;;;20.08;14.75;;;9.40;99.90;;;;;;5017828;28;20102;-63
2022/03/29 05:00:28;;;;;;;21.08;15.27;;;9.40;99.90;;;;;;5008109;28;20140;-62
2022/03/29 05:02:55;;;;;;;22.00;16.05;;;9.30;99.90;;;;;;5020297;28;20136;-63
2022/03/29 05:05:22;;;;;;;19.50;16.05;;;9.20;99.90;;;;;;5019670;28;20050;-63
2022/03/29 05:07:48;;;;;;;19.92;15.00;;;9.20;99.90;;;;;;5014874;28;20152;-63
2022/03/29 05:10:15;;;;;;;20.52;15.98;;;9.20;99.90;;;;;;5013448;28;20057;-64
2022/03/29 05:12:43;;;;;;;21.35;17.77;;;9.20;99.90;;;;;;5015412;28;20211;-64
2022/03/29 05:15:10;;;;;;;20.55;16.25;;;9.10;99.90;;;;;;5017123;28;20582;-63
2022/03/29 05:17:37;;;;;;;19.77;16.35;;;9.10;99.90;;;;;;5018067;28;20123;-64
2022/03/29 05:20:05;;;;;;;20.13;16.55;;;9.10;99.90;;;;;;5013725;28;20209;-64
2022/03/29 05:22:32;;;;;;;23.52;17.15;;;9.10;99.90;;;;;;5014528;28;20072;-64
2022/03/29 05:24:59;;;;;;;24.17;18.58;;;9.00;99.90;;;;;;5010966;28;20077;-63
2022/03/29 05:27:25;;;;;;;22.95;17.23;;;9.00;99.90;;;;;;5012559;28;20096;-63
2022/03/29 05:29:52;;;;;;;22.77;17.42;;;8.90;99.90;;;;;;5016082;28;20419;-63
2022/03/29 05:32:19;;;;;;;22.63;16.67;;;8.90;99.90;;;;;;5014835;28;20144;-63
2022/03/29 05:34:46;;;;;;;24.67;17.10;;;8.90;99.90;;;;;;5011275;28;20050;-63
2022/03/29 05:37:14;;;;;;;21.90;16.83;;;8.90;99.90;;;;;;5015672;28;20149;-62
2022/03/29 05:39:43;;;;;;;21.83;17.27;;;8.90;99.90;;;;;;5015268;28;20054;-63
2022/03/29 05:42:10;;;;;;;24.38;15.65;;;8.80;99.90;;;;;;5007238;28;20046;-62
2022/03/29 05:44:37;;;;;;;18.65;14.77;;;8.80;99.90;;;;;;5022479;28;20057;-63
2022/03/29 05:49:51;;;;;;;22.88;16.70;;;8.80;99.90;;;;;;5010084;28;20086;-62
2022/03/29 05:52:18;;;;;;;20.02;14.95;;;8.70;99.90;;;;;;5011953;28;20925;-62
2022/03/29 05:54:46;;;;;;;22.33;16.15;;;8.70;99.90;;;;;;5014630;28;20055;-62
2022/03/29 05:57:14;;;;;;;20.48;15.30;;;8.70;99.90;;;;;;5017573;28;20466;-61
2022/03/29 05:59:41;;;;;;;20.30;15.90;;;8.70;99.90;;;;;;5023680;28;20100;-62
2022/03/29 06:02:08;;;;;;;17.75;14.50;;;8.70;99.90;;;;;;5021569;28;20495;-61
2022/03/29 06:04:35;;;;;;;20.50;15.57;;;8.70;99.90;;;;;;5017931;28;20052;-61
2022/03/29 06:07:05;;;;;;;19.13;14.90;;;8.70;99.90;;;;;;5011933;28;20061;-61
2022/03/29 06:09:33;;;;;;;20.92;17.08;;;8.70;99.90;;;;;;5010529;28;20115;-62
2022/03/29 06:11:59;;;;;;;20.42;16.83;;;8.60;99.90;;;;;;5009107;28;20748;-62
2022/03/29 06:14:27;;;;;;;21.15;15.85;;;8.60;99.90;;;;;;5001081;28;20125;-59
2022/03/29 06:16:55;;;;;;;23.38;16.52;;;8.60;99.90;;;;;;5004820;28;20088;-61
2022/03/29 06:19:22;;;;;;;24.15;16.35;;;8.60;99.90;;;;;;5002039;28;20045;-61
2022/03/29 06:21:49;;;;;;;20.20;14.85;;;8.70;99.90;;;;;;4999877;28;20141;-61
2022/03/29 06:24:16;;;;;;;22.90;17.73;;;8.70;99.90;;;;;;5016643;28;20041;-61
2022/03/29 06:26:43;;;;;;;19.85;14.63;;;8.60;99.90;;;;;;5011379;28;20122;-61
2022/03/29 06:29:10;;;;;;;23.02;16.15;;;8.70;99.90;;;;;;4999931;28;20124;-61
2022/03/29 06:31:37;;;;;;;20.52;15.45;;;8.60;99.90;;;;;;4999562;28;20493;-61
2022/03/29 06:34:05;;;;;;;18.23;13.27;;;8.70;99.90;;;;;;4997481;28;20046;-61
2022/03/29 06:36:32;;;;;;;17.83;14.20;;;8.70;99.90;;;;;;4998918;28;20199;-60
2022/03/29 06:39:02;;;;;;;20.27;15.32;;;8.80;99.90;;;;;;4982233;28;20148;-61
2022/03/29 06:41:30;;;;;;;19.10;13.02;;;8.80;99.90;;;;;;4996751;28;20104;-61
2022/03/29 06:43:57;;;;;;;18.48;13.57;;;8.90;99.90;;;;;;4998014;28;20046;-61
2022/03/29 06:46:24;;;;;;;19.08;14.05;;;8.90;99.90;;;;;;4998850;28;20541;-61
2022/03/29 06:48:51;;;;;;;17.65;12.82;;;8.90;99.90;;;;;;4998842;28;20453;-61
2022/03/29 06:51:18;;;;;;;18.88;13.10;;;8.90;99.90;;;;;;4998518;28;20049;-61
2022/03/29 06:53:45;;;;;;;16.50;12.98;;;9.00;99.90;;;;;;4998752;28;20389;-61
2022/03/29 06:56:12;;;;;;;17.55;13.15;;;9.00;99.90;;;;;;4997891;28;20466;-61
2022/03/29 06:58:38;;;;;;;16.55;12.00;;;9.00;99.90;;;;;;4997288;28;20186;-61
2022/03/29 07:01:05;;;;;;;18.27;13.25;;;9.10;99.90;;;;;;4999309;28;20049;-61
2022/03/29 07:03:35;;;;;;;19.08;13.50;;;9.10;99.90;;;;;;4997292;28;20647;-62
2022/03/29 07:06:04;;;;;;;15.95;12.13;;;9.10;99.90;;;;;;4998768;28;20380;-61
2022/03/29 07:08:30;;;;;;;20.98;13.10;;;9.10;99.90;;;;;;4998606;28;20046;-62
2022/03/29 07:11:16;;;;;;;14.90;12.40;;;9.20;99.90;;;;;;4997345;28;20121;-61
2022/03/29 07:13:44;;;;;;;17.90;13.10;;;9.20;99.90;;;;;;5011972;28;20089;-61
2022/03/29 07:16:12;;;;;;;18.55;14.38;;;9.20;99.90;;;;;;5011416;28;20156;-63
2022/03/29 07:18:45;;;;;;;16.80;12.63;;;9.20;99.90;;;;;;4990069;28;20054;-62
2022/03/29 07:21:12;;;;;;;18.50;13.07;;;9.20;99.90;;;;;;5013204;28;20049;-62
2022/03/29 07:23:40;;;;;;;23.38;14.20;;;9.30;99.90;;;;;;5016553;28;20614;-61
2022/03/29 07:26:06;;;;;;;19.05;12.95;;;9.20;99.90;;;;;;5001348;28;20107;-61
2022/03/29 07:28:33;;;;;;;19.08;13.80;;;9.30;99.90;;;;;;5008027;28;20080;-61
2022/03/29 07:31:00;;;;;;;16.33;12.75;;;9.30;99.90;;;;;;5017951;28;20136;-61
2022/03/29 07:33:27;;;;;;;18.02;12.95;;;9.40;99.90;;;;;;5012929;28;20068;-62
2022/03/29 07:35:55;;;;;;;19.38;13.80;;;9.40;99.90;;;;;;5005126;28;20145;-62
2022/03/29 07:38:22;;;;;;;18.67;13.85;;;9.40;99.90;;;;;;5011281;28;20057;-61
2022/03/29 07:40:48;;;;;;;18.35;13.98;;;9.40;99.90;;;;;;5007751;28;20207;-61
2022/03/29 07:43:15;;;;;;;19.98;14.48;;;9.40;99.90;;;;;;5000556;28;20421;-62
2022/03/29 07:45:48;;;;;;;18.23;13.52;;;9.50;99.90;;;;;;4998776;28;20111;-62
2022/03/29 07:48:15;;;;;;;18.38;13.30;;;9.60;99.90;;;;;;5014907;28;20194;-61
2022/03/29 07:51:02;;;;;;;18.45;13.13;;;9.70;99.90;;;;;;5017299;28;20053;-62
2022/03/29 07:53:29;;;;;;;20.67;15.10;;;9.60;99.90;;;;;;5016223;28;20045;-62
2022/03/29 07:55:56;;;;;;;18.58;14.13;;;9.60;99.90;;;;;;5013950;28;20096;-61
2022/03/29 07:58:23;;;;;;;18.38;13.45;;;9.70;99.90;;;;;;5011656;28;20050;-62
2022/03/29 08:00:51;;;;;;;20.95;15.73;;;9.70;99.90;;;;;;5006399;28;20042;-61
2022/03/29 08:03:20;;;;;;;16.55;13.40;;;9.70;99.90;;;;;;4998337;28;20415;-62
2022/03/29 08:05:47;;;;;;;21.70;14.48;;;9.80;99.90;;;;;;5008291;28;20120;-61
2022/03/29 08:08:15;;;;;;;16.77;12.80;;;9.80;99.90;;;;;;5010158;28;20276;-62
2022/03/29 08:10:43;;;;;;;23.55;14.80;;;9.80;99.90;;;;;;5001422;28;20663;-62
2022/03/29 08:13:10;;;;;;;18.27;14.18;;;9.80;99.90;;;;;;4996870;28;20592;-62
2022/03/29 08:15:38;;;;;;;20.00;14.27;;;9.80;99.90;;;;;;5007329;28;20514;-62
2022/03/29 08:18:06;;;;;;;22.08;17.70;;;9.90;99.90;;;;;;5007250;28;20092;-62
2022/03/29 08:20:33;;;;;;;24.35;15.27;;;9.90;99.90;;;;;;4999345;28;20125;-62
2022/03/29 08:23:00;;;;;;;20.50;15.10;;;9.90;99.90;;;;;;5011283;28;20125;-62
2022/03/29 08:25:29;;;;;;;20.17;15.05;;;9.90;99.90;;;;;;5006668;28;20053;-62
2022/03/29 08:27:56;;;;;;;19.45;14.43;;;9.80;99.90;;;;;;5017383;28;20492;-62
2022/03/29 08:30:24;;;;;;;16.52;13.25;;;9.90;99.90;;;;;;5017623;28;20144;-62
2022/03/29 08:32:52;;;;;;;17.23;13.25;;;9.90;99.90;;;;;;5009813;28;20405;-62
2022/03/29 08:35:21;;;;;;;19.08;13.48;;;10.00;99.90;;;;;;5020760;28;20148;-62
2022/03/29 08:37:48;;;;;;;19.38;14.57;;;10.00;99.90;;;;;;5011115;28;20715;-62
2022/03/29 08:40:26;;;;;;;16.23;12.48;;;10.00;99.90;;;;;;5014409;28;20143;-61
2022/03/29 08:42:58;;;;;;;19.88;14.77;;;10.10;99.90;;;;;;5001069;28;20531;-62
2022/03/29 08:45:29;;;;;;;20.17;13.73;;;10.10;99.90;;;;;;5001427;28;20103;-63
2022/03/29 08:47:57;;;;;;;17.33;13.45;;;10.20;99.90;;;;;;5002415;28;20188;-62
2022/03/29 08:50:26;;;;;;;19.77;15.95;;;10.20;99.90;;;;;;5013279;28;20142;-62
2022/03/29 08:52:53;;;;;;;16.15;13.82;;;10.20;99.90;;;;;;5003172;28;20483;-62
2022/03/29 08:55:20;;;;;;;16.23;14.32;;;10.30;99.90;;;;;;4999273;28;20458;-62
2022/03/29 08:57:54;;;;;;;17.48;14.93;;;10.30;99.90;;;;;;5010175;28;20078;-62
2022/03/29 09:00:24;;;;;;;16.52;13.88;;;10.30;99.90;;;;;;5018553;28;20049;-62
2022/03/29 09:02:51;;;;;;;16.35;13.02;;;10.40;99.90;;;;;;5005163;28;20509;-62
2022/03/29 09:05:22;;;;;;;15.10;11.85;;;10.40;99.90;;;;;;5012039;28;20519;-62
2022/03/29 09:07:50;;;;;;;14.85;12.88;;;10.50;99.90;;;;;;5012798;28;20477;-63
2022/03/29 09:10:18;;;;;;;14.82;12.20;;;10.50;99.90;;;;;;5000336;28;20560;-62
2022/03/29 09:12:45;;;;;;;13.93;11.20;;;10.50;99.90;;;;;;5009343;28;20133;-62
2022/03/29 09:15:12;;;;;;;14.85;11.88;;;10.60;99.90;;;;;;5011991;28;20092;-61
2022/03/29 09:17:45;;;;;;;15.85;12.65;;;10.50;99.90;;;;;;5012290;28;20176;-63
2022/03/29 09:20:21;;;;;;;15.93;12.50;;;10.40;99.90;;;;;;5013767;28;20415;-62
2022/03/29 09:22:49;;;;;;;14.50;11.20;;;10.50;99.90;;;;;;5006407;28;20140;-62
2022/03/29 09:25:17;;;;;;;15.20;12.10;;;10.50;99.90;;;;;;5012229;28;20053;-62
2022/03/29 09:28:00;;;;;;;16.27;13.20;;;10.60;99.90;;;;;;5007198;28;20133;-61
2022/03/29 09:30:38;;;;;;;16.75;12.93;;;10.70;99.90;;;;;;5005274;28;20229;-62
2022/03/29 09:33:07;;;;;;;15.57;13.20;;;10.60;99.90;;;;;;5006245;28;20517;-62
2022/03/29 09:35:37;;;;;;;15.45;13.82;;;10.60;99.90;;;;;;5015472;28;20477;-63
2022/03/29 09:38:21;;;;;;;18.33;14.55;;;10.60;99.90;;;;;;5005849;28;20112;-62
2022/03/29 09:40:47;;;;;;;17.65;14.00;;;10.60;99.90;;;;;;4997667;28;20073;-62
2022/03/29 09:43:14;;;;;;;15.75;13.57;;;10.60;99.90;;;;;;5003968;28;20596;-62
2022/03/29 09:45:48;;;;;;;18.98;14.48;;;10.70;99.90;;;;;;5004828;28;20092;-62
2022/03/29 09:48:40;;;;;;;17.88;14.10;;;10.80;99.90;;;;;;5007118;28;20157;-63
2022/03/29 09:51:10;;;;;;;15.82;14.20;;;10.90;99.90;;;;;;5014116;28;20073;-63
2022/03/29 09:53:52;;;;;;;17.35;14.30;;;10.90;99.90;;;;;;5008006;28;20443;-62
2022/03/29 09:56:24;;;;;;;15.95;14.30;;;11.00;99.90;;;;;;5006893;28;20037;-62
2022/03/29 09:59:14;;;;;;;17.80;15.93;;;10.90;99.90;;;;;;5000767;28;20069;-62
2022/03/29 10:01:53;;;;;;;18.77;15.60;;;10.90;99.90;;;;;;5003488;28;20378;-62
2022/03/29 10:04:20;;;;;;;19.30;16.40;;;10.90;99.90;;;;;;5019150;28;20060;-62
2022/03/29 10:06:48;;;;;;;21.88;15.88;;;10.90;99.90;;;;;;5018489;28;20107;-61
2022/03/29 10:09:38;;;;;;;15.75;14.15;;;10.90;99.90;;;;;;5018857;28;20096;-62
2022/03/29 10:12:06;;;;;;;17.10;14.32;;;10.90;99.90;;;;;;5013446;28;20072;-62
2022/03/29 10:14:36;;;;;;;17.98;15.02;;;11.00;99.90;;;;;;5010313;28;20473;-62
2022/03/29 10:17:03;;;;;;;16.70;14.27;;;11.00;99.90;;;;;;5019057;28;20111;-62
2022/03/29 10:19:30;;;;;;;16.13;14.50;;;11.10;99.90;;;;;;5018769;28;20135;-62
2022/03/29 10:21:58;;;;;;;16.65;14.20;;;11.10;99.90;;;;;;5005328;28;20041;-61
2022/03/29 10:24:27;;;;;;;16.70;14.63;;;11.00;99.90;;;;;;5001623;28;20064;-62
2022/03/29 10:26:56;;;;;;;19.33;16.02;;;11.00;99.90;;;;;;5006104;28;20064;-61
2022/03/29 10:29:23;;;;;;;18.00;15.50;;;11.00;99.90;;;;;;5007443;28;20452;-61
2022/03/29 10:31:51;;;;;;;17.15;15.25;;;10.90;99.90;;;;;;4989066;28;20112;-61
2022/03/29 10:34:30;;;;;;;16.27;14.15;;;10.90;99.90;;;;;;4999686;28;20053;-61
2022/03/29 10:37:14;;;;;;;15.68;14.00;;;10.90;99.90;;;;;;5005102;28;20179;-61
2022/03/29 10:39:56;;;;;;;15.00;13.18;;;10.90;99.90;;;;;;5054633;28;20481;-61
2022/03/29 10:42:44;;;;;;;18.38;16.00;;;10.90;99.90;;;;;;5043377;28;20053;-62
2022/03/29 10:45:11;;;;;;;20.38;16.35;;;10.70;99.90;;;;;;5034835;28;20049;-62
2022/03/29 10:47:54;;;;;;;19.50;15.50;;;10.60;99.90;;;;;;5029113;28;20057;-61
2022/03/29 10:50:20;;;;;;;18.10;15.32;;;10.70;99.90;;;;;;5032920;28;20436;-62
2022/03/29 10:52:49;;;;;;;16.48;13.52;;;10.70;99.90;;;;;;5033504;28;20143;-61
2022/03/29 10:55:25;;;;;;;16.52;13.95;;;10.70;99.90;;;;;;5034387;28;20128;-61
2022/03/29 10:58:10;;;;;;;18.13;15.90;;;10.70;99.90;;;;;;5033596;28;20689;-62
2022/03/29 11:00:42;;;;;;;18.27;14.52;;;10.70;99.90;;;;;;5034357;28;20132;-61
2022/03/29 11:03:20;;;;;;;17.90;14.45;;;10.60;99.90;;;;;;5022288;28;20045;-60
2022/03/29 11:06:17;;;;;;;18.02;15.40;;;10.50;99.90;;;;;;5031140;28;20049;-62
2022/03/29 11:08:47;;;;;;;18.65;15.90;;;10.50;99.90;;;;;;5033011;28;20091;-61
2022/03/29 11:11:40;;;;;;;16.85;13.73;;;10.50;99.90;;;;;;5029899;28;20148;-61
2022/03/29 11:14:29;;;;;;;18.77;15.90;;;10.60;99.90;;;;;;5060489;28;20122;-62
2022/03/29 11:17:08;;;;;;;17.98;14.18;;;10.60;99.90;;;;;;5036492;28;20532;-62
2022/03/29 11:19:49;;;;;;;19.10;15.35;;;10.60;99.90;;;;;;5042663;28;20053;-62
2022/03/29 11:22:21;;;;;;;16.30;13.80;;;10.70;99.90;;;;;;5042167;28;20126;-62
2022/03/29 11:24:49;;;;;;;18.52;15.65;;;10.80;99.90;;;;;;5033505;28;20064;-61
2022/03/29 11:27:23;;;;;;;20.70;16.60;;;10.80;99.90;;;;;;5039164;28;20057;-61
2022/03/29 11:29:50;;;;;;;19.33;16.23;;;10.80;99.90;;;;;;5041462;28;20382;-61
2022/03/29 11:32:17;;;;;;;20.40;16.27;;;10.90;99.90;;;;;;5032654;28;20552;-62
2022/03/29 11:34:44;;;;;;;21.45;17.95;;;10.90;99.90;;;;;;5031074;28;20092;-62
2022/03/29 11:37:27;;;;;;;21.85;19.13;;;10.90;99.90;;;;;;5032903;28;20095;-61
2022/03/29 11:39:54;;;;;;;20.23;16.67;;;11.00;99.90;;;;;;5030144;28;20056;-62
2022/03/29 11:42:20;;;;;;;20.02;17.63;;;11.00;99.90;;;;;;5042548;28;20648;-61
2022/03/29 11:44:48;;;;;;;18.90;16.90;;;11.10;99.90;;;;;;5029208;28;20058;-62
2022/03/29 11:47:14;;;;;;;20.02;16.75;;;11.20;99.90;;;;;;5042741;28;20146;-61
2022/03/29 11:49:42;;;;;;;19.83;16.17;;;11.20;99.90;;;;;;5024626;28;20082;-62
2022/03/29 11:52:13;;;;;;;17.52;14.82;;;11.30;99.90;;;;;;5017460;28;20138;-61
2022/03/29 11:54:42;;;;;;;19.52;16.63;;;11.40;99.90;;;;;;5012881;28;20107;-62
2022/03/29 11:57:15;;;;;;;18.48;16.05;;;11.40;99.90;;;;;;5010807;28;20081;-62
2022/03/29 11:59:42;;;;;;;19.15;16.77;;;11.40;99.90;;;;;;5013441;28;20547;-62
2022/03/29 12:02:09;;;;;;;22.48;16.67;;;11.50;99.90;;;;;;5004599;28;20050;-62
2022/03/29 12:04:37;;;;;;;22.52;17.88;;;11.50;99.90;;;;;;5009344;28;20120;-62
2022/03/29 12:07:04;;;;;;;19.48;16.17;;;11.50;99.90;;;;;;5011111;28;20436;-62
2022/03/29 12:09:31;;;;;;;19.02;17.02;;;11.60;99.90;;;;;;5009739;28;20244;-62
2022/03/29 12:12:03;;;;;;;17.48;15.60;;;11.60;99.90;;;;;;4995533;28;20117;-62
2022/03/29 12:14:31;;;;;;;19.75;15.20;;;11.60;99.90;;;;;;5023888;28;20108;-61
2022/03/29 12:17:03;;;;;;;17.73;15.18;;;11.70;99.90;;;;;;5020332;28;20164;-62
2022/03/29 12:19:31;;;;;;;17.02;13.80;;;11.70;99.90;;;;;;5015569;28;20059;-62
2022/03/29 12:22:07;;;;;;;19.58;16.02;;;11.80;99.90;;;;;;5013704;28;20096;-62
2022/03/29 12:24:39;;;;;;;19.10;16.08;;;11.80;99.90;;;;;;5027804;28;20496;-62
2022/03/29 12:27:08;;;;;;;16.60;14.82;;;11.80;99.90;;;;;;5026705;28;20068;-62
2022/03/29 12:29:46;;;;;;;16.05;14.35;;;11.80;99.90;;;;;;5017230;28;20315;-62
2022/03/29 12:32:13;;;;;;;15.82;14.13;;;11.80;99.90;;;;;;5000482;28;20067;-62
2022/03/29 12:34:45;;;;;;;17.75;14.15;;;11.80;99.90;;;;;;5002043;28;20084;-62
2022/03/29 12:37:15;;;;;;;15.80;13.95;;;11.80;99.90;;;;;;5028781;28;20153;-63
2022/03/29 12:39:43;;;;;;;15.80;13.25;;;11.90;99.90;;;;;;5013263;28;20145;-61
2022/03/29 12:42:11;;;;;;;17.80;15.23;;;12.00;99.90;;;;;;5007521;28;20124;-61
2022/03/29 12:44:48;;;;;;;15.23;13.65;;;12.00;99.90;;;;;;5019115;28;20359;-60
2022/03/29 12:47:16;;;;;;;16.15;14.38;;;12.10;99.90;;;;;;5006046;28;20057;-60